• Join FlightAware (Why Join?)
  • Login
  • US Flag 
12:27PM EDT


 

Airport Tracker/Info


-or-


 

Live Flight TrackerFlight Track Log ✈ FLG4262 ✈ 15-Nov-2013 ✈ KBGM - KDTW

Flight Track Log - Related Links

Times and Time Zones

All times are in EST time to prevent confusion due to time zone crossing. See the FLG4262 flight status page for this flight to view local times or setup timezone preferences in your user account.

Time Position Orientation Groundspeed Altitude Reporting Facility
EST Latitude Longitude Course Direction KTS MPH feet Rate Location/Type
05:34PM 42.1292 -76.0417 269° West 138 159 6,900  Level New York Center
05:35PM 42.1564 -76.1278 293° West 184 212 8,000 1,680 Climbing New York Center
05:36PM 42.1856 -76.2197 293° West 222 255 10,300 1,740 Climbing New York Center
05:37PM 42.2183 -76.3233 293° West 257 296 11,500 1,320 Climbing New York Center
05:38PM 42.2436 -76.3919 296° West 321 369 12,600 1,920 Climbing Cleveland Center
05:39PM 42.2794 -76.5069 293° West 330 380 14,900 1,980 Climbing Cleveland Center
05:40PM 42.3158 -76.6231 293° West 333 383 16,700 1,620 Climbing Cleveland Center
05:41PM 42.3608 -76.7669 293° West 349 402 18,300 1,320 Climbing Cleveland Center
05:42PM 42.3992 -76.8875 293° West 349 402 19,500 1,140 Climbing Cleveland Center
05:43PM 42.4383 -77.0131 293° West 360 414 20,700 1,200 Climbing Cleveland Center
05:44PM 42.4767 -77.1372 293° West 360 414 22,000 1,200 Climbing Cleveland Center
05:45PM 42.5144 -77.2592 293° West 355 409 23,200 600 Climbing Cleveland Center
05:47PM 42.5975 -77.5331 292° West 368 423 24,000 240 Climbing Cleveland Center
05:49PM 42.6372 -77.6656 292° West 374 430 24,000  Level Cleveland Center
05:50PM 42.6794 -77.8003 293° West 386 444 24,000  Level Cleveland Center
05:51PM 42.7253 -77.9542 292° West 388 447 24,000  Level Cleveland Center
05:52PM 42.7650 -78.0881 292° West 383 441 24,000  Level Cleveland Center
05:53PM 42.8044 -78.2208 292° West 379 436 24,000  Level Cleveland Center
05:54PM 42.8442 -78.3569 292° West 387 445 24,000  Level Cleveland Center
05:55PM 42.8836 -78.4919 292° West 384 442 24,000  Level Cleveland Center
05:56PM 42.9244 -78.6278 292° West 386 444 24,000  Level Cleveland Center
05:57PM 42.9100 -78.7911 263° West 368 423 24,000  Level Cleveland Center
05:58PM 42.8883 -78.9275 258° West 370 426 24,000  Level Cleveland Center
05:59PM 42.8683 -79.0644 259° West 370 426 24,000  Level Cleveland Center
06:00PM 42.8481 -79.2003 259° West 368 423 24,000  Level Cleveland Center
06:01PM 42.8242 -79.3639 259° West 367 422 24,000  Level Cleveland Center
06:02PM 42.8031 -79.5006 258° West 369 425 24,000  Level Cleveland Center
06:03PM 42.7828 -79.6361 259° West 368 423 24,000  Level Cleveland Center
06:04PM 42.7614 -79.7722 258° West 368 423 24,000  Level Cleveland Center
06:05PM 42.7478 -79.9108 262° West 372 428 24,000  Level Cleveland Center
06:06PM 42.7414 -80.0639 267° West 375 432 24,000  Level Cleveland Center
06:07PM 42.7361 -80.2069 267° West 377 434 24,000  Level Cleveland Center
06:08PM 42.7303 -80.3494 267° West 375 432 24,000  Level Cleveland Center
06:09PM 42.7233 -80.4922 266° West 376 433 24,000  Level Cleveland Center
06:10PM 42.7161 -80.6525 267° West 365 420 24,000  Level Cleveland Center
06:11PM 42.7114 -80.7900 267° West 362 417 24,000  Level Cleveland Center
06:12PM 42.7031 -80.9231 265° West 353 406 24,000 -540 Level Cleveland Center
06:13PM 42.6869 -81.0544 261° West 352 405 22,900 -1,140 Descending Cleveland Center
06:14PM 42.6708 -81.1897 261° West 358 412 21,700 -1,200 Descending Cleveland Center
06:15PM 42.6561 -81.3256 262° West 361 415 20,500 -840 Descending Cleveland Center
06:16PM 42.6397 -81.4597 261° West 358 412 20,000 -300 Descending Cleveland Center
06:18PM 42.6217 -81.6133 261° West 353 406 20,000  Level Cleveland Center
06:19PM 42.6056 -81.7458 261° West 353 406 20,000  Level Cleveland Center
06:20PM 42.5911 -81.8697 261° West 355 409 20,000 -180 Level Cleveland Center
06:21PM 42.5744 -82.0022 260° West 355 409 19,700 -1,200 Descending Cleveland Center
06:22PM 42.5561 -82.1603 261° West 356 410 17,600 -1,980 Descending Cleveland Center
06:22PM 42.5442 -82.2653 261° West 339 390 16,100 -1,800 Descending Cleveland Center
06:23PM 42.5403 -82.2856 255° West 344 396 15,800 -1,860 Descending Cleveland Center
06:24PM 42.5269 -82.3933 261° West 330 380 14,200 -1,800 Descending Cleveland Center
06:24PM 42.5239 -82.4078 254° West 335 386 14,000 -1,860 Descending Cleveland Center
06:25PM 42.5114 -82.5244 262° West 322 371 12,200 -1,800 Descending Cleveland Center
06:25PM 42.5092 -82.5275 225° Southwest 326 375 12,200 -660 Level Cleveland Center
06:26PM 42.4653 -82.6144 236° Southwest 307 353 11,600 -780 Descending Cleveland Center
06:26PM 42.4586 -82.6214 218° Southwest 312 359 11,400 -1,320 Descending Cleveland Center
06:27PM 42.4219 -82.6967 237° Southwest 259 298 10,300 -1,260 Descending Cleveland Center
06:27PM 42.4147 -82.7033 214° Southwest 283 326 10,100 -1,320 Descending Cleveland Center
06:28PM 42.3853 -82.7681 238° Southwest 204 235 9,000 -1,500 Descending Cleveland Center
06:28PM 42.3864 -82.7881 274° West 233 268 8,600 -900 Descending Cleveland Center
06:29PM 42.4128 -82.8481 301° West 217 250 8,000 -600 Descending Cleveland Center
06:29PM 42.4169 -82.8564 304° West 216 249 8,000  Level Cleveland Center
06:30PM 42.4431 -82.9228 298° West 215 247 8,000  Level Cleveland Center
06:30PM 42.4450 -82.9281 297° West 216 249 8,000  Level Cleveland Center
06:31PM 42.4714 -82.9917 299° West 213 245 8,000  Level Cleveland Center
06:31PM 42.4722 -82.9983 280° West 213 245 8,000 -480 Level Cleveland Center
06:32PM 42.4956 -83.0600 297° West 216 249 7,600 -720 Descending Cleveland Center
06:32PM 42.4994 -83.0694 299° West 213 245 7,300 -540 Descending Cleveland Center
06:33PM 42.4939 -83.1389 264° West 202 232 7,000 -540 Descending Cleveland Center
06:33PM 42.4869 -83.1531 236° Southwest 213 245 6,800 -1,380 Descending Cleveland Center
06:34PM 42.4506 -83.1867 214° Southwest 203 234 5,600 -1,500 Descending Cleveland Center
06:34PM 42.4394 -83.1944 207° Southwest 212 244 5,300 -1,020 Descending Cleveland Center
06:35PM 42.4083 -83.2175 209° Southwest 182 209 4,700 -1,020 Descending Cleveland Center
06:35PM 42.3944 -83.2269 207° Southwest 191 220 4,300 -1,140 Descending Cleveland Center
06:36PM 42.3658 -83.2514 212° Southwest 177 204 3,600 -900 Descending Cleveland Center
06:36PM 42.3522 -83.2586 201° Southwest 179 206 3,400 -900 Descending Cleveland Center
06:37PM 42.3236 -83.2822 211° Southwest 161 185 2,700 -900 Descending Cleveland Center
06:37PM 42.3131 -83.2875 200° South 168 193 2,500 -720 Descending Cleveland Center
06:38PM 42.2881 -83.3081 211° Southwest 135 155 2,000 -720 Descending Cleveland Center
06:38PM 42.2786 -83.3142 206° Southwest 154 177 1,800 -720 Descending Cleveland Center
06:39PM 42.2572 -83.3292 207° Southwest 125 144 1,300 -720 Descending Cleveland Center
06:39PM 42.2492 -83.3350 208° Southwest 133 153 1,100 -480 Descending Cleveland Center
06:41PM 42.2124 -83.3534 246° West  Level Estimated
06:48PM 42.2124 -83.3534 246° West  Level Estimated
06:49PM 42.2124 -83.3534 246° West  Level Estimated